Accueil
METAR-TAF:

METAR-TAF

Aéroports :

Magadan, Russie

latitude: 59-33N, longitude: 150-47E, altitude: 118 m

Observation

Le bulletin a été fait il y a 37 minutes, à 08:00 UTC
Vent 6 kt de nord
Température 2°C
Humidité 40%
Pression 1016 hPa
Visibilité 10 km ou plus
Nuages épars à une hauteur de 4000 ft

METAR: UHMM 090800Z 01003MPS 9999 SCT040 02/M10 Q1016 R10/91//65 NOSIG RMK QFE747

Heure: 19:37 (08:37 UTC)

Prévision

Le bulletin a été fait il y a 1 heure et 4 minutes, à 07:33 UTC
Prévision valable du 09 à 09 UTC au 10 à 15 UTC
Vent 6 kt de nord avec des rafales jusqu'à 19 kt
Visibilité 10 km ou plus
Nuages épars à une hauteur de 4000 ft
Temporairement
du 10 à 10 UTC au 10 à 15 UTC
Quelques nuages à une hauteur de 500 ft
Nuages épars à une hauteur de 1100 ft

TAF: UHMM 090733Z 0909/1015 01003G10MPS 9999 SCT040 TEMPO 1010/1015 FEW005 SCT011

Observations et prévisions météorologiques de plus de 4000 aéroports (messages METAR et TAF).

Les stations disponibles sont représentées par des disques jaunes et rouges sur la carte.

Passer la souris dessus pour voir le nom de la station.

Cliquer dessus pour voir les observations et prévisions météorologiques.

Pour changer de carte: cliquez sur les boutons verts avec une croix noire pour zoomer, sur le bouton vert avec un tiret pour effectuer un zoom arrière, ou sur les flèches vertes pour les cartes adjacentes.


METAR-TAF: